sensor_id;sensor_type;location;lat;lon;timestamp;P1;durP1;ratioP1;P2;durP2;ratioP2
19495;SDS011;9888;48.606;9.630;2023-04-25T00:00:21;8.40;;;3.37;;
19495;SDS011;9888;48.606;9.630;2023-04-25T00:02:48;7.43;;;3.00;;
19495;SDS011;9888;48.606;9.630;2023-04-25T00:05:16;7.57;;;3.07;;
19495;SDS011;9888;48.606;9.630;2023-04-25T00:07:45;7.93;;;3.07;;
19495;SDS011;9888;48.606;9.630;2023-04-25T00:10:13;7.70;;;2.93;;
19495;SDS011;9888;48.606;9.630;2023-04-25T00:12:40;8.80;;;3.83;;
19495;SDS011;9888;48.606;9.630;2023-04-25T00:15:08;8.00;;;3.27;;
19495;SDS011;9888;48.606;9.630;2023-04-25T00:17:37;8.37;;;3.23;;
19495;SDS011;9888;48.606;9.630;2023-04-25T00:20:05;7.60;;;3.43;;
19495;SDS011;9888;48.606;9.630;2023-04-25T00:22:35;7.60;;;3.33;;
19495;SDS011;9888;48.606;9.630;2023-04-25T00:25:05;10.03;;;3.33;;
19495;SDS011;9888;48.606;9.630;2023-04-25T00:27:33;7.97;;;3.27;;
19495;SDS011;9888;48.606;9.630;2023-04-25T00:30:00;9.70;;;3.87;;
19495;SDS011;9888;48.606;9.630;2023-04-25T00:32:27;9.63;;;3.97;;
19495;SDS011;9888;48.606;9.630;2023-04-25T00:34:54;9.70;;;3.80;;
19495;SDS011;9888;48.606;9.630;2023-04-25T00:37:23;10.17;;;4.20;;
19495;SDS011;9888;48.606;9.630;2023-04-25T00:39:50;9.53;;;4.07;;
19495;SDS011;9888;48.606;9.630;2023-04-25T00:42:19;8.77;;;3.87;;
19495;SDS011;9888;48.606;9.630;2023-04-25T00:44:47;10.00;;;3.90;;
19495;SDS011;9888;48.606;9.630;2023-04-25T00:47:14;10.53;;;4.37;;
19495;SDS011;9888;48.606;9.630;2023-04-25T00:49:42;9.73;;;3.77;;
19495;SDS011;9888;48.606;9.630;2023-04-25T00:52:10;9.30;;;3.67;;
19495;SDS011;9888;48.606;9.630;2023-04-25T00:54:38;9.47;;;3.50;;
19495;SDS011;9888;48.606;9.630;2023-04-25T00:57:05;8.07;;;3.40;;
19495;SDS011;9888;48.606;9.630;2023-04-25T00:59:33;8.70;;;3.53;;
19495;SDS011;9888;48.606;9.630;2023-04-25T01:02:04;8.90;;;3.40;;
19495;SDS011;9888;48.606;9.630;2023-04-25T01:04:33;7.90;;;3.33;;
19495;SDS011;9888;48.606;9.630;2023-04-25T01:07:00;10.73;;;3.33;;
19495;SDS011;9888;48.606;9.630;2023-04-25T01:12:38;10.73;;;3.13;;
19495;SDS011;9888;48.606;9.630;2023-04-25T01:15:06;9.30;;;3.83;;
19495;SDS011;9888;48.606;9.630;2023-04-25T01:17:35;9.50;;;3.50;;
19495;SDS011;9888;48.606;9.630;2023-04-25T01:20:04;8.43;;;3.47;;
19495;SDS011;9888;48.606;9.630;2023-04-25T01:22:37;9.60;;;3.60;;
19495;SDS011;9888;48.606;9.630;2023-04-25T01:25:19;9.40;;;3.77;;
19495;SDS011;9888;48.606;9.630;2023-04-25T01:27:47;10.07;;;3.70;;
19495;SDS011;9888;48.606;9.630;2023-04-25T01:33:24;11.60;;;3.70;;
19495;SDS011;9888;48.606;9.630;2023-04-25T01:35:51;9.30;;;3.50;;
19495;SDS011;9888;48.606;9.630;2023-04-25T01:38:18;7.10;;;2.80;;
19495;SDS011;9888;48.606;9.630;2023-04-25T01:40:46;10.13;;;3.60;;
19495;SDS011;9888;48.606;9.630;2023-04-25T01:43:17;8.93;;;3.47;;
19495;SDS011;9888;48.606;9.630;2023-04-25T01:45:44;8.00;;;3.40;;
19495;SDS011;9888;48.606;9.630;2023-04-25T01:48:13;8.70;;;3.67;;
19495;SDS011;9888;48.606;9.630;2023-04-25T01:50:43;8.00;;;3.03;;
19495;SDS011;9888;48.606;9.630;2023-04-25T01:53:10;7.97;;;2.90;;
19495;SDS011;9888;48.606;9.630;2023-04-25T01:55:40;9.80;;;3.70;;
19495;SDS011;9888;48.606;9.630;2023-04-25T01:58:08;10.23;;;3.77;;
19495;SDS011;9888;48.606;9.630;2023-04-25T02:00:35;10.03;;;3.43;;
19495;SDS011;9888;48.606;9.630;2023-04-25T02:03:04;8.93;;;3.27;;
19495;SDS011;9888;48.606;9.630;2023-04-25T02:05:39;9.30;;;3.27;;
19495;SDS011;9888;48.606;9.630;2023-04-25T02:08:06;7.10;;;2.97;;
19495;SDS011;9888;48.606;9.630;2023-04-25T02:10:35;8.90;;;3.67;;
19495;SDS011;9888;48.606;9.630;2023-04-25T02:13:03;8.00;;;3.60;;
19495;SDS011;9888;48.606;9.630;2023-04-25T02:15:30;9.90;;;3.37;;
19495;SDS011;9888;48.606;9.630;2023-04-25T02:17:58;9.70;;;3.40;;
19495;SDS011;9888;48.606;9.630;2023-04-25T02:20:26;10.27;;;3.50;;
19495;SDS011;9888;48.606;9.630;2023-04-25T02:22:59;9.33;;;3.33;;
19495;SDS011;9888;48.606;9.630;2023-04-25T02:25:28;7.60;;;3.20;;
19495;SDS011;9888;48.606;9.630;2023-04-25T02:28:13;8.30;;;3.30;;
19495;SDS011;9888;48.606;9.630;2023-04-25T02:30:40;9.70;;;3.53;;
19495;SDS011;9888;48.606;9.630;2023-04-25T02:33:07;9.40;;;4.00;;
19495;SDS011;9888;48.606;9.630;2023-04-25T02:35:47;10.60;;;3.40;;
19495;SDS011;9888;48.606;9.630;2023-04-25T02:38:15;8.73;;;3.43;;
19495;SDS011;9888;48.606;9.630;2023-04-25T02:40:43;10.77;;;3.10;;
19495;SDS011;9888;48.606;9.630;2023-04-25T02:43:09;8.53;;;3.20;;
19495;SDS011;9888;48.606;9.630;2023-04-25T02:45:38;9.80;;;3.30;;
19495;SDS011;9888;48.606;9.630;2023-04-25T02:48:07;13.23;;;3.50;;
19495;SDS011;9888;48.606;9.630;2023-04-25T02:50:34;9.80;;;3.37;;
19495;SDS011;9888;48.606;9.630;2023-04-25T02:56:02;9.27;;;3.60;;
19495;SDS011;9888;48.606;9.630;2023-04-25T02:58:31;8.13;;;2.90;;
19495;SDS011;9888;48.606;9.630;2023-04-25T03:01:02;8.70;;;2.87;;
19495;SDS011;9888;48.606;9.630;2023-04-25T03:06:52;21.57;;;3.37;;
19495;SDS011;9888;48.606;9.630;2023-04-25T03:09:19;7.70;;;2.43;;
19495;SDS011;9888;48.606;9.630;2023-04-25T03:11:47;7.87;;;2.60;;
19495;SDS011;9888;48.606;9.630;2023-04-25T03:14:14;7.53;;;2.70;;
19495;SDS011;9888;48.606;9.630;2023-04-25T03:16:47;10.20;;;2.90;;
19495;SDS011;9888;48.606;9.630;2023-04-25T03:19:18;7.67;;;2.90;;
19495;SDS011;9888;48.606;9.630;2023-04-25T03:21:46;8.93;;;3.00;;
19495;SDS011;9888;48.606;9.630;2023-04-25T03:24:27;8.17;;;2.97;;
19495;SDS011;9888;48.606;9.630;2023-04-25T03:26:54;9.10;;;3.00;;
19495;SDS011;9888;48.606;9.630;2023-04-25T03:29:22;8.73;;;3.03;;
19495;SDS011;9888;48.606;9.630;2023-04-25T03:31:51;9.90;;;3.30;;
19495;SDS011;9888;48.606;9.630;2023-04-25T03:34:19;7.80;;;2.80;;
19495;SDS011;9888;48.606;9.630;2023-04-25T03:36:47;8.80;;;2.87;;
19495;SDS011;9888;48.606;9.630;2023-04-25T03:39:15;11.20;;;3.37;;
19495;SDS011;9888;48.606;9.630;2023-04-25T03:41:44;7.27;;;3.10;;
19495;SDS011;9888;48.606;9.630;2023-04-25T03:44:11;9.83;;;3.10;;
19495;SDS011;9888;48.606;9.630;2023-04-25T03:46:38;8.60;;;2.97;;
19495;SDS011;9888;48.606;9.630;2023-04-25T03:49:08;7.73;;;3.40;;
19495;SDS011;9888;48.606;9.630;2023-04-25T03:51:35;11.93;;;3.53;;
19495;SDS011;9888;48.606;9.630;2023-04-25T03:54:02;8.87;;;3.80;;
19495;SDS011;9888;48.606;9.630;2023-04-25T03:56:29;9.00;;;3.20;;
19495;SDS011;9888;48.606;9.630;2023-04-25T03:58:57;11.00;;;3.30;;
19495;SDS011;9888;48.606;9.630;2023-04-25T04:01:26;8.63;;;3.50;;
19495;SDS011;9888;48.606;9.630;2023-04-25T04:03:54;9.73;;;3.83;;
19495;SDS011;9888;48.606;9.630;2023-04-25T04:06:20;9.30;;;3.73;;
19495;SDS011;9888;48.606;9.630;2023-04-25T04:08:47;10.73;;;3.67;;
19495;SDS011;9888;48.606;9.630;2023-04-25T04:11:15;10.77;;;3.80;;
19495;SDS011;9888;48.606;9.630;2023-04-25T04:13:43;8.77;;;3.40;;
19495;SDS011;9888;48.606;9.630;2023-04-25T04:16:11;11.27;;;3.93;;
19495;SDS011;9888;48.606;9.630;2023-04-25T04:18:38;12.10;;;4.30;;
19495;SDS011;9888;48.606;9.630;2023-04-25T04:21:14;9.87;;;4.80;;
19495;SDS011;9888;48.606;9.630;2023-04-25T04:23:41;8.63;;;3.40;;
19495;SDS011;9888;48.606;9.630;2023-04-25T04:26:09;8.30;;;3.70;;
19495;SDS011;9888;48.606;9.630;2023-04-25T04:28:43;8.20;;;3.23;;
19495;SDS011;9888;48.606;9.630;2023-04-25T04:31:10;11.87;;;3.70;;
19495;SDS011;9888;48.606;9.630;2023-04-25T04:33:41;9.80;;;3.33;;
19495;SDS011;9888;48.606;9.630;2023-04-25T04:36:10;8.30;;;3.20;;
19495;SDS011;9888;48.606;9.630;2023-04-25T04:38:38;7.93;;;3.57;;
19495;SDS011;9888;48.606;9.630;2023-04-25T04:43:57;11.10;;;3.37;;
19495;SDS011;9888;48.606;9.630;2023-04-25T04:49:37;14.33;;;3.90;;
19495;SDS011;9888;48.606;9.630;2023-04-25T04:52:04;15.87;;;3.80;;
19495;SDS011;9888;48.606;9.630;2023-04-25T04:54:32;10.77;;;3.60;;
19495;SDS011;9888;48.606;9.630;2023-04-25T04:57:03;8.30;;;3.33;;
19495;SDS011;9888;48.606;9.630;2023-04-25T04:59:30;9.97;;;3.53;;
19495;SDS011;9888;48.606;9.630;2023-04-25T05:01:57;31.30;;;14.43;;
19495;SDS011;9888;48.606;9.630;2023-04-25T05:04:24;31.87;;;13.80;;
19495;SDS011;9888;48.606;9.630;2023-04-25T05:06:52;47.13;;;19.93;;
19495;SDS011;9888;48.606;9.630;2023-04-25T05:09:19;16.20;;;7.60;;
19495;SDS011;9888;48.606;9.630;2023-04-25T05:11:51;29.93;;;14.60;;
19495;SDS011;9888;48.606;9.630;2023-04-25T05:14:19;15.80;;;7.07;;
19495;SDS011;9888;48.606;9.630;2023-04-25T05:16:53;8.10;;;3.20;;
19495;SDS011;9888;48.606;9.630;2023-04-25T05:19:22;11.40;;;3.90;;
19495;SDS011;9888;48.606;9.630;2023-04-25T05:21:51;8.50;;;3.23;;
19495;SDS011;9888;48.606;9.630;2023-04-25T05:24:21;13.53;;;4.47;;
19495;SDS011;9888;48.606;9.630;2023-04-25T05:26:49;8.03;;;3.33;;
19495;SDS011;9888;48.606;9.630;2023-04-25T05:29:16;10.43;;;3.50;;
19495;SDS011;9888;48.606;9.630;2023-04-25T05:31:49;15.80;;;5.00;;
19495;SDS011;9888;48.606;9.630;2023-04-25T05:34:16;9.67;;;3.60;;
19495;SDS011;9888;48.606;9.630;2023-04-25T05:36:43;9.63;;;3.23;;
19495;SDS011;9888;48.606;9.630;2023-04-25T05:39:15;8.80;;;3.30;;
19495;SDS011;9888;48.606;9.630;2023-04-25T05:41:46;10.67;;;3.30;;
19495;SDS011;9888;48.606;9.630;2023-04-25T05:44:13;6.90;;;2.47;;
19495;SDS011;9888;48.606;9.630;2023-04-25T05:46:47;10.07;;;3.90;;
19495;SDS011;9888;48.606;9.630;2023-04-25T05:49:15;10.93;;;3.37;;
19495;SDS011;9888;48.606;9.630;2023-04-25T05:51:43;8.77;;;3.30;;
19495;SDS011;9888;48.606;9.630;2023-04-25T05:54:10;9.40;;;3.87;;
19495;SDS011;9888;48.606;9.630;2023-04-25T05:56:38;9.53;;;3.53;;
19495;SDS011;9888;48.606;9.630;2023-04-25T05:59:07;10.53;;;3.70;;
19495;SDS011;9888;48.606;9.630;2023-04-25T06:01:36;12.37;;;3.67;;
19495;SDS011;9888;48.606;9.630;2023-04-25T06:04:07;10.30;;;3.53;;
19495;SDS011;9888;48.606;9.630;2023-04-25T06:06:34;8.67;;;3.47;;
19495;SDS011;9888;48.606;9.630;2023-04-25T06:09:03;8.60;;;3.40;;
19495;SDS011;9888;48.606;9.630;2023-04-25T06:11:40;8.67;;;3.10;;
19495;SDS011;9888;48.606;9.630;2023-04-25T06:14:08;10.40;;;4.10;;
19495;SDS011;9888;48.606;9.630;2023-04-25T06:19:32;7.13;;;2.23;;
19495;SDS011;9888;48.606;9.630;2023-04-25T06:22:01;9.30;;;4.27;;
19495;SDS011;9888;48.606;9.630;2023-04-25T06:24:28;7.80;;;3.13;;
19495;SDS011;9888;48.606;9.630;2023-04-25T06:26:55;9.90;;;3.47;;
19495;SDS011;9888;48.606;9.630;2023-04-25T06:29:22;11.90;;;3.73;;
19495;SDS011;9888;48.606;9.630;2023-04-25T06:31:49;9.23;;;3.93;;
19495;SDS011;9888;48.606;9.630;2023-04-25T06:34:16;9.33;;;4.23;;
19495;SDS011;9888;48.606;9.630;2023-04-25T06:36:43;9.47;;;3.93;;
19495;SDS011;9888;48.606;9.630;2023-04-25T06:39:10;8.70;;;2.90;;
19495;SDS011;9888;48.606;9.630;2023-04-25T06:41:37;9.70;;;3.53;;
19495;SDS011;9888;48.606;9.630;2023-04-25T06:44:04;11.23;;;3.87;;
19495;SDS011;9888;48.606;9.630;2023-04-25T06:46:31;9.30;;;3.67;;
19495;SDS011;9888;48.606;9.630;2023-04-25T06:49:02;10.00;;;3.80;;
19495;SDS011;9888;48.606;9.630;2023-04-25T06:51:29;9.80;;;3.90;;
19495;SDS011;9888;48.606;9.630;2023-04-25T06:53:56;10.40;;;4.10;;
19495;SDS011;9888;48.606;9.630;2023-04-25T06:56:24;10.13;;;4.40;;
19495;SDS011;9888;48.606;9.630;2023-04-25T06:58:51;10.00;;;4.10;;
19495;SDS011;9888;48.606;9.630;2023-04-25T07:01:18;9.13;;;3.80;;
19495;SDS011;9888;48.606;9.630;2023-04-25T07:03:46;15.07;;;4.30;;
19495;SDS011;9888;48.606;9.630;2023-04-25T07:06:13;9.23;;;3.80;;
19495;SDS011;9888;48.606;9.630;2023-04-25T07:08:40;10.10;;;4.50;;
19495;SDS011;9888;48.606;9.630;2023-04-25T07:11:07;10.00;;;4.20;;
19495;SDS011;9888;48.606;9.630;2023-04-25T07:13:35;8.70;;;4.17;;
19495;SDS011;9888;48.606;9.630;2023-04-25T07:16:03;10.30;;;4.27;;
19495;SDS011;9888;48.606;9.630;2023-04-25T07:18:30;10.53;;;4.73;;
19495;SDS011;9888;48.606;9.630;2023-04-25T07:20:57;10.67;;;5.20;;
19495;SDS011;9888;48.606;9.630;2023-04-25T07:26:16;12.77;;;4.40;;
19495;SDS011;9888;48.606;9.630;2023-04-25T07:28:43;13.87;;;5.10;;
19495;SDS011;9888;48.606;9.630;2023-04-25T07:31:10;12.20;;;6.13;;
19495;SDS011;9888;48.606;9.630;2023-04-25T07:33:37;10.60;;;4.70;;
19495;SDS011;9888;48.606;9.630;2023-04-25T07:36:04;11.10;;;5.30;;
19495;SDS011;9888;48.606;9.630;2023-04-25T07:38:34;13.40;;;4.70;;
19495;SDS011;9888;48.606;9.630;2023-04-25T07:41:01;10.30;;;5.13;;
19495;SDS011;9888;48.606;9.630;2023-04-25T07:43:28;11.47;;;5.00;;
19495;SDS011;9888;48.606;9.630;2023-04-25T07:45:56;10.07;;;4.80;;
19495;SDS011;9888;48.606;9.630;2023-04-25T07:48:23;11.13;;;4.90;;
19495;SDS011;9888;48.606;9.630;2023-04-25T07:57:26;9.47;;;4.40;;
19495;SDS011;9888;48.606;9.630;2023-04-25T07:59:54;9.33;;;4.03;;
19495;SDS011;9888;48.606;9.630;2023-04-25T08:05:11;10.83;;;4.37;;
19495;SDS011;9888;48.606;9.630;2023-04-25T08:07:43;10.60;;;4.33;;
19495;SDS011;9888;48.606;9.630;2023-04-25T08:10:11;9.60;;;3.90;;
19495;SDS011;9888;48.606;9.630;2023-04-25T08:12:42;11.23;;;4.10;;
19495;SDS011;9888;48.606;9.630;2023-04-25T08:15:10;9.23;;;4.03;;
19495;SDS011;9888;48.606;9.630;2023-04-25T08:17:39;9.60;;;4.00;;
19495;SDS011;9888;48.606;9.630;2023-04-25T08:20:12;8.87;;;3.97;;
19495;SDS011;9888;48.606;9.630;2023-04-25T08:22:39;8.73;;;3.60;;
19495;SDS011;9888;48.606;9.630;2023-04-25T08:25:06;9.83;;;4.17;;
19495;SDS011;9888;48.606;9.630;2023-04-25T08:27:33;9.90;;;4.00;;
19495;SDS011;9888;48.606;9.630;2023-04-25T08:30:00;15.83;;;4.03;;
19495;SDS011;9888;48.606;9.630;2023-04-25T08:32:28;11.77;;;5.10;;
19495;SDS011;9888;48.606;9.630;2023-04-25T08:34:55;9.73;;;4.67;;
19495;SDS011;9888;48.606;9.630;2023-04-25T08:37:22;9.23;;;3.97;;
19495;SDS011;9888;48.606;9.630;2023-04-25T08:39:50;10.13;;;4.23;;
19495;SDS011;9888;48.606;9.630;2023-04-25T08:42:21;9.23;;;4.00;;
19495;SDS011;9888;48.606;9.630;2023-04-25T08:44:49;10.63;;;4.90;;
19495;SDS011;9888;48.606;9.630;2023-04-25T08:47:19;12.03;;;5.03;;
19495;SDS011;9888;48.606;9.630;2023-04-25T08:49:50;11.27;;;4.07;;
19495;SDS011;9888;48.606;9.630;2023-04-25T08:52:21;10.73;;;4.63;;
19495;SDS011;9888;48.606;9.630;2023-04-25T08:54:49;12.33;;;5.10;;
19495;SDS011;9888;48.606;9.630;2023-04-25T08:57:18;9.47;;;3.97;;
19495;SDS011;9888;48.606;9.630;2023-04-25T08:59:47;10.23;;;4.17;;
19495;SDS011;9888;48.606;9.630;2023-04-25T09:02:14;9.60;;;4.33;;
19495;SDS011;9888;48.606;9.630;2023-04-25T09:04:43;11.73;;;4.60;;
19495;SDS011;9888;48.606;9.630;2023-04-25T09:07:10;10.10;;;4.10;;
19495;SDS011;9888;48.606;9.630;2023-04-25T09:09:41;9.53;;;3.80;;
19495;SDS011;9888;48.606;9.630;2023-04-25T09:12:08;10.93;;;4.10;;
19495;SDS011;9888;48.606;9.630;2023-04-25T09:14:35;11.20;;;4.33;;
19495;SDS011;9888;48.606;9.630;2023-04-25T09:17:03;8.33;;;3.70;;
19495;SDS011;9888;48.606;9.630;2023-04-25T09:19:36;7.77;;;2.83;;
19495;SDS011;9888;48.606;9.630;2023-04-25T09:22:06;8.80;;;3.00;;
19495;SDS011;9888;48.606;9.630;2023-04-25T09:24:43;9.00;;;3.43;;
19495;SDS011;9888;48.606;9.630;2023-04-25T09:27:19;9.70;;;2.90;;
19495;SDS011;9888;48.606;9.630;2023-04-25T09:29:57;7.70;;;2.80;;
19495;SDS011;9888;48.606;9.630;2023-04-25T09:32:28;8.27;;;3.03;;
19495;SDS011;9888;48.606;9.630;2023-04-25T09:34:55;7.17;;;3.07;;
19495;SDS011;9888;48.606;9.630;2023-04-25T09:37:29;7.93;;;2.93;;
19495;SDS011;9888;48.606;9.630;2023-04-25T09:39:57;7.77;;;2.70;;
19495;SDS011;9888;48.606;9.630;2023-04-25T09:42:28;7.13;;;2.27;;
19495;SDS011;9888;48.606;9.630;2023-04-25T09:44:57;7.17;;;2.37;;
19495;SDS011;9888;48.606;9.630;2023-04-25T09:47:27;7.33;;;2.80;;
19495;SDS011;9888;48.606;9.630;2023-04-25T09:49:54;6.40;;;2.07;;
19495;SDS011;9888;48.606;9.630;2023-04-25T09:52:23;7.27;;;2.20;;
19495;SDS011;9888;48.606;9.630;2023-04-25T09:54:50;7.20;;;2.60;;
19495;SDS011;9888;48.606;9.630;2023-04-25T09:57:19;6.70;;;2.50;;
19495;SDS011;9888;48.606;9.630;2023-04-25T09:59:48;16.23;;;9.63;;
19495;SDS011;9888;48.606;9.630;2023-04-25T10:02:17;8.70;;;3.10;;
19495;SDS011;9888;48.606;9.630;2023-04-25T10:04:49;8.43;;;2.80;;
19495;SDS011;9888;48.606;9.630;2023-04-25T10:07:23;7.83;;;3.23;;
19495;SDS011;9888;48.606;9.630;2023-04-25T10:10:03;7.80;;;2.77;;
19495;SDS011;9888;48.606;9.630;2023-04-25T10:12:34;8.57;;;3.10;;
19495;SDS011;9888;48.606;9.630;2023-04-25T10:15:02;8.00;;;2.73;;
19495;SDS011;9888;48.606;9.630;2023-04-25T10:17:30;7.30;;;2.70;;
19495;SDS011;9888;48.606;9.630;2023-04-25T10:19:58;7.73;;;2.90;;
19495;SDS011;9888;48.606;9.630;2023-04-25T10:22:30;8.00;;;2.90;;
19495;SDS011;9888;48.606;9.630;2023-04-25T10:25:02;8.73;;;3.80;;
19495;SDS011;9888;48.606;9.630;2023-04-25T10:27:30;9.97;;;3.40;;
19495;SDS011;9888;48.606;9.630;2023-04-25T10:30:10;9.57;;;3.40;;
19495;SDS011;9888;48.606;9.630;2023-04-25T10:32:43;9.50;;;3.50;;
19495;SDS011;9888;48.606;9.630;2023-04-25T10:35:13;8.87;;;3.73;;
19495;SDS011;9888;48.606;9.630;2023-04-25T10:38:03;9.07;;;3.70;;
19495;SDS011;9888;48.606;9.630;2023-04-25T10:40:32;8.43;;;3.57;;
19495;SDS011;9888;48.606;9.630;2023-04-25T10:46:01;9.83;;;4.10;;
19495;SDS011;9888;48.606;9.630;2023-04-25T10:48:38;10.13;;;4.40;;
19495;SDS011;9888;48.606;9.630;2023-04-25T10:51:21;10.57;;;3.80;;
19495;SDS011;9888;48.606;9.630;2023-04-25T10:56:27;10.30;;;4.23;;
19495;SDS011;9888;48.606;9.630;2023-04-25T11:01:43;8.50;;;3.77;;
19495;SDS011;9888;48.606;9.630;2023-04-25T11:04:28;9.27;;;3.80;;
19495;SDS011;9888;48.606;9.630;2023-04-25T11:07:07;9.17;;;3.83;;
19495;SDS011;9888;48.606;9.630;2023-04-25T11:10:08;7.60;;;2.87;;
19495;SDS011;9888;48.606;9.630;2023-04-25T11:12:36;8.50;;;3.10;;
19495;SDS011;9888;48.606;9.630;2023-04-25T11:15:04;8.60;;;3.23;;
19495;SDS011;9888;48.606;9.630;2023-04-25T11:17:33;8.40;;;2.90;;
19495;SDS011;9888;48.606;9.630;2023-04-25T11:24:00;7.50;;;2.50;;
19495;SDS011;9888;48.606;9.630;2023-04-25T11:26:26;6.90;;;2.07;;
19495;SDS011;9888;48.606;9.630;2023-04-25T11:28:56;9.60;;;2.90;;
19495;SDS011;9888;48.606;9.630;2023-04-25T11:31:27;5.80;;;1.70;;
19495;SDS011;9888;48.606;9.630;2023-04-25T11:33:58;7.93;;;2.80;;
19495;SDS011;9888;48.606;9.630;2023-04-25T11:36:26;9.67;;;3.20;;
19495;SDS011;9888;48.606;9.630;2023-04-25T11:38:53;6.70;;;2.10;;
19495;SDS011;9888;48.606;9.630;2023-04-25T11:41:21;8.90;;;3.63;;
19495;SDS011;9888;48.606;9.630;2023-04-25T11:43:48;8.13;;;2.73;;
19495;SDS011;9888;48.606;9.630;2023-04-25T11:46:18;7.40;;;2.50;;
19495;SDS011;9888;48.606;9.630;2023-04-25T11:48:45;7.67;;;2.50;;
19495;SDS011;9888;48.606;9.630;2023-04-25T11:51:13;8.43;;;3.23;;
19495;SDS011;9888;48.606;9.630;2023-04-25T11:53:41;8.70;;;3.00;;
19495;SDS011;9888;48.606;9.630;2023-04-25T11:56:11;6.90;;;2.60;;
19495;SDS011;9888;48.606;9.630;2023-04-25T12:01:48;7.20;;;2.10;;
19495;SDS011;9888;48.606;9.630;2023-04-25T12:04:19;7.00;;;2.40;;
19495;SDS011;9888;48.606;9.630;2023-04-25T12:06:51;6.30;;;1.90;;
19495;SDS011;9888;48.606;9.630;2023-04-25T12:09:19;6.30;;;1.70;;
19495;SDS011;9888;48.606;9.630;2023-04-25T12:11:56;7.37;;;1.60;;
19495;SDS011;9888;48.606;9.630;2023-04-25T12:14:29;6.13;;;2.10;;
19495;SDS011;9888;48.606;9.630;2023-04-25T12:16:58;6.93;;;2.03;;
19495;SDS011;9888;48.606;9.630;2023-04-25T12:19:26;7.00;;;2.10;;
19495;SDS011;9888;48.606;9.630;2023-04-25T12:22:01;6.33;;;1.93;;
19495;SDS011;9888;48.606;9.630;2023-04-25T12:24:29;6.80;;;2.10;;
19495;SDS011;9888;48.606;9.630;2023-04-25T12:27:02;6.70;;;2.00;;
19495;SDS011;9888;48.606;9.630;2023-04-25T12:32:46;5.50;;;1.50;;
19495;SDS011;9888;48.606;9.630;2023-04-25T12:35:14;4.90;;;1.30;;
19495;SDS011;9888;48.606;9.630;2023-04-25T12:37:42;5.67;;;1.60;;
19495;SDS011;9888;48.606;9.630;2023-04-25T12:40:09;6.10;;;1.80;;
19495;SDS011;9888;48.606;9.630;2023-04-25T12:42:37;5.90;;;1.70;;
19495;SDS011;9888;48.606;9.630;2023-04-25T12:45:05;5.53;;;1.30;;
19495;SDS011;9888;48.606;9.630;2023-04-25T12:47:32;5.40;;;1.50;;
19495;SDS011;9888;48.606;9.630;2023-04-25T12:50:00;5.20;;;1.30;;
19495;SDS011;9888;48.606;9.630;2023-04-25T12:52:27;5.50;;;1.53;;
19495;SDS011;9888;48.606;9.630;2023-04-25T12:54:55;5.40;;;1.30;;
19495;SDS011;9888;48.606;9.630;2023-04-25T12:57:22;7.03;;;1.60;;
19495;SDS011;9888;48.606;9.630;2023-04-25T12:59:50;6.33;;;1.67;;
19495;SDS011;9888;48.606;9.630;2023-04-25T13:02:17;6.30;;;1.97;;
19495;SDS011;9888;48.606;9.630;2023-04-25T13:04:46;5.87;;;1.83;;
19495;SDS011;9888;48.606;9.630;2023-04-25T13:07:13;5.70;;;1.70;;
19495;SDS011;9888;48.606;9.630;2023-04-25T13:09:39;5.60;;;1.50;;
19495;SDS011;9888;48.606;9.630;2023-04-25T13:12:07;8.20;;;1.70;;
19495;SDS011;9888;48.606;9.630;2023-04-25T13:14:33;5.80;;;1.60;;
19495;SDS011;9888;48.606;9.630;2023-04-25T13:17:01;6.00;;;1.70;;
19495;SDS011;9888;48.606;9.630;2023-04-25T13:19:28;6.80;;;1.90;;
19495;SDS011;9888;48.606;9.630;2023-04-25T13:21:55;6.30;;;2.00;;
19495;SDS011;9888;48.606;9.630;2023-04-25T13:24:23;6.10;;;2.07;;
19495;SDS011;9888;48.606;9.630;2023-04-25T13:26:50;6.40;;;2.20;;
19495;SDS011;9888;48.606;9.630;2023-04-25T13:29:17;8.47;;;2.83;;
19495;SDS011;9888;48.606;9.630;2023-04-25T13:31:44;9.50;;;3.37;;
19495;SDS011;9888;48.606;9.630;2023-04-25T13:34:10;8.13;;;3.20;;
19495;SDS011;9888;48.606;9.630;2023-04-25T13:36:38;8.03;;;3.43;;
19495;SDS011;9888;48.606;9.630;2023-04-25T13:39:05;8.83;;;3.73;;
19495;SDS011;9888;48.606;9.630;2023-04-25T13:41:32;8.13;;;3.33;;
19495;SDS011;9888;48.606;9.630;2023-04-25T13:43:59;8.17;;;3.40;;
19495;SDS011;9888;48.606;9.630;2023-04-25T13:52:39;9.20;;;3.97;;
19495;SDS011;9888;48.606;9.630;2023-04-25T13:55:06;8.90;;;4.27;;
19495;SDS011;9888;48.606;9.630;2023-04-25T13:57:38;11.33;;;4.17;;
19495;SDS011;9888;48.606;9.630;2023-04-25T14:00:05;9.60;;;4.40;;
19495;SDS011;9888;48.606;9.630;2023-04-25T14:02:37;8.73;;;4.07;;
19495;SDS011;9888;48.606;9.630;2023-04-25T14:05:05;9.23;;;3.93;;
19495;SDS011;9888;48.606;9.630;2023-04-25T14:07:33;8.80;;;3.77;;
19495;SDS011;9888;48.606;9.630;2023-04-25T14:10:01;8.60;;;4.10;;
19495;SDS011;9888;48.606;9.630;2023-04-25T14:12:30;9.10;;;3.77;;
19495;SDS011;9888;48.606;9.630;2023-04-25T14:14:57;11.10;;;4.23;;
19495;SDS011;9888;48.606;9.630;2023-04-25T14:17:24;9.10;;;4.20;;
19495;SDS011;9888;48.606;9.630;2023-04-25T14:19:54;9.53;;;4.70;;
19495;SDS011;9888;48.606;9.630;2023-04-25T14:22:24;8.67;;;3.93;;
19495;SDS011;9888;48.606;9.630;2023-04-25T14:24:52;10.23;;;4.23;;
19495;SDS011;9888;48.606;9.630;2023-04-25T14:27:19;9.00;;;4.70;;
19495;SDS011;9888;48.606;9.630;2023-04-25T14:29:46;8.57;;;4.30;;
19495;SDS011;9888;48.606;9.630;2023-04-25T14:32:12;9.27;;;4.03;;
19495;SDS011;9888;48.606;9.630;2023-04-25T14:34:40;9.83;;;4.50;;
19495;SDS011;9888;48.606;9.630;2023-04-25T14:37:07;10.33;;;5.03;;
19495;SDS011;9888;48.606;9.630;2023-04-25T14:39:34;11.20;;;4.70;;
19495;SDS011;9888;48.606;9.630;2023-04-25T14:42:02;9.70;;;4.77;;
19495;SDS011;9888;48.606;9.630;2023-04-25T14:44:29;10.33;;;4.87;;
19495;SDS011;9888;48.606;9.630;2023-04-25T14:46:56;10.90;;;5.40;;
19495;SDS011;9888;48.606;9.630;2023-04-25T14:49:24;10.73;;;4.80;;
19495;SDS011;9888;48.606;9.630;2023-04-25T14:51:51;12.53;;;5.90;;
19495;SDS011;9888;48.606;9.630;2023-04-25T14:54:18;11.53;;;5.60;;
19495;SDS011;9888;48.606;9.630;2023-04-25T14:56:44;11.60;;;5.87;;
19495;SDS011;9888;48.606;9.630;2023-04-25T14:59:11;12.73;;;6.23;;
19495;SDS011;9888;48.606;9.630;2023-04-25T15:01:38;10.87;;;5.70;;
19495;SDS011;9888;48.606;9.630;2023-04-25T15:04:05;11.90;;;5.63;;
19495;SDS011;9888;48.606;9.630;2023-04-25T15:06:33;10.63;;;4.90;;
19495;SDS011;9888;48.606;9.630;2023-04-25T15:08:59;11.70;;;5.83;;
19495;SDS011;9888;48.606;9.630;2023-04-25T15:11:26;12.03;;;5.63;;
19495;SDS011;9888;48.606;9.630;2023-04-25T15:13:53;11.73;;;6.10;;
19495;SDS011;9888;48.606;9.630;2023-04-25T15:16:20;12.50;;;5.60;;
19495;SDS011;9888;48.606;9.630;2023-04-25T15:18:47;11.67;;;5.57;;
19495;SDS011;9888;48.606;9.630;2023-04-25T15:21:14;13.60;;;5.90;;
19495;SDS011;9888;48.606;9.630;2023-04-25T15:23:41;11.20;;;5.37;;
19495;SDS011;9888;48.606;9.630;2023-04-25T15:26:08;11.83;;;5.90;;
19495;SDS011;9888;48.606;9.630;2023-04-25T15:28:36;12.67;;;5.87;;
19495;SDS011;9888;48.606;9.630;2023-04-25T15:31:02;11.50;;;6.00;;
19495;SDS011;9888;48.606;9.630;2023-04-25T15:33:30;12.47;;;5.70;;
19495;SDS011;9888;48.606;9.630;2023-04-25T15:42:42;14.27;;;6.47;;
19495;SDS011;9888;48.606;9.630;2023-04-25T15:45:16;14.33;;;7.17;;
19495;SDS011;9888;48.606;9.630;2023-04-25T15:47:45;12.50;;;6.47;;
19495;SDS011;9888;48.606;9.630;2023-04-25T15:50:13;12.20;;;6.20;;
19495;SDS011;9888;48.606;9.630;2023-04-25T15:52:43;12.13;;;6.50;;
19495;SDS011;9888;48.606;9.630;2023-04-25T15:55:10;12.27;;;5.93;;
19495;SDS011;9888;48.606;9.630;2023-04-25T15:57:38;17.47;;;6.47;;
19495;SDS011;9888;48.606;9.630;2023-04-25T16:00:08;11.97;;;5.90;;
19495;SDS011;9888;48.606;9.630;2023-04-25T22:11:02;16.47;;;8.20;;
19495;SDS011;9888;48.606;9.630;2023-04-25T22:13:31;17.33;;;7.60;;
19495;SDS011;9888;48.606;9.630;2023-04-25T22:15:58;16.73;;;7.27;;
19495;SDS011;9888;48.606;9.630;2023-04-25T22:18:25;18.13;;;7.63;;